sensor_id;sensor_type;location;lat;lon;timestamp;temperature;humidity
25332;DHT22;13284;52.748;13.452;2024-01-30T00:01:37;2.90;99.90
25332;DHT22;13284;52.748;13.452;2024-01-30T00:04:02;2.90;99.90
25332;DHT22;13284;52.748;13.452;2024-01-30T00:06:28;2.80;99.90
25332;DHT22;13284;52.748;13.452;2024-01-30T00:08:53;2.80;99.90
25332;DHT22;13284;52.748;13.452;2024-01-30T00:11:19;2.80;99.90
25332;DHT22;13284;52.748;13.452;2024-01-30T00:13:44;2.80;99.90
25332;DHT22;13284;52.748;13.452;2024-01-30T00:16:23;2.80;99.90
25332;DHT22;13284;52.748;13.452;2024-01-30T00:18:50;2.80;99.90
25332;DHT22;13284;52.748;13.452;2024-01-30T00:21:16;2.80;99.90
25332;DHT22;13284;52.748;13.452;2024-01-30T00:23:41;2.80;99.90
25332;DHT22;13284;52.748;13.452;2024-01-30T00:26:07;2.70;99.90
25332;DHT22;13284;52.748;13.452;2024-01-30T00:28:32;2.70;99.90
25332;DHT22;13284;52.748;13.452;2024-01-30T00:30:58;2.70;99.90
25332;DHT22;13284;52.748;13.452;2024-01-30T00:33:23;2.60;99.90
25332;DHT22;13284;52.748;13.452;2024-01-30T00:35:49;2.60;99.90
25332;DHT22;13284;52.748;13.452;2024-01-30T00:38:14;2.50;99.90
25332;DHT22;13284;52.748;13.452;2024-01-30T00:40:40;2.50;99.90
25332;DHT22;13284;52.748;13.452;2024-01-30T00:43:05;2.50;99.90
25332;DHT22;13284;52.748;13.452;2024-01-30T00:45:31;2.40;99.90
25332;DHT22;13284;52.748;13.452;2024-01-30T00:47:56;2.40;99.90
25332;DHT22;13284;52.748;13.452;2024-01-30T00:50:22;2.40;99.90
25332;DHT22;13284;52.748;13.452;2024-01-30T00:52:47;2.30;99.90
25332;DHT22;13284;52.748;13.452;2024-01-30T00:55:13;2.30;99.90
25332;DHT22;13284;52.748;13.452;2024-01-30T00:57:39;2.20;99.90
25332;DHT22;13284;52.748;13.452;2024-01-30T01:00:06;2.20;99.90
25332;DHT22;13284;52.748;13.452;2024-01-30T01:02:34;2.20;99.90
25332;DHT22;13284;52.748;13.452;2024-01-30T01:05:00;2.20;99.90
25332;DHT22;13284;52.748;13.452;2024-01-30T01:07:25;2.20;99.90
25332;DHT22;13284;52.748;13.452;2024-01-30T01:09:51;2.20;99.90
25332;DHT22;13284;52.748;13.452;2024-01-30T01:12:16;2.20;99.90
25332;DHT22;13284;52.748;13.452;2024-01-30T01:14:42;2.20;99.90
25332;DHT22;13284;52.748;13.452;2024-01-30T01:17:07;2.20;99.90
25332;DHT22;13284;52.748;13.452;2024-01-30T01:19:33;2.20;99.90
25332;DHT22;13284;52.748;13.452;2024-01-30T01:21:58;2.20;99.90
25332;DHT22;13284;52.748;13.452;2024-01-30T01:24:24;2.20;99.90
25332;DHT22;13284;52.748;13.452;2024-01-30T01:26:49;2.20;99.90
25332;DHT22;13284;52.748;13.452;2024-01-30T01:29:15;2.20;99.90
25332;DHT22;13284;52.748;13.452;2024-01-30T01:31:41;2.10;99.90
25332;DHT22;13284;52.748;13.452;2024-01-30T01:34:10;2.10;99.90
25332;DHT22;13284;52.748;13.452;2024-01-30T01:36:36;2.10;99.90
25332;DHT22;13284;52.748;13.452;2024-01-30T01:39:01;2.10;99.90
25332;DHT22;13284;52.748;13.452;2024-01-30T01:41:34;2.00;99.90
25332;DHT22;13284;52.748;13.452;2024-01-30T01:44:00;2.00;99.90
25332;DHT22;13284;52.748;13.452;2024-01-30T01:46:31;2.00;99.90
25332;DHT22;13284;52.748;13.452;2024-01-30T01:48:57;2.00;99.90
25332;DHT22;13284;52.748;13.452;2024-01-30T01:51:24;2.00;99.90
25332;DHT22;13284;52.748;13.452;2024-01-30T01:53:53;2.00;99.90
25332;DHT22;13284;52.748;13.452;2024-01-30T01:56:20;2.00;99.90
25332;DHT22;13284;52.748;13.452;2024-01-30T01:58:46;2.00;99.90
25332;DHT22;13284;52.748;13.452;2024-01-30T02:01:13;2.00;99.90
25332;DHT22;13284;52.748;13.452;2024-01-30T02:03:40;2.00;99.90
25332;DHT22;13284;52.748;13.452;2024-01-30T02:06:06;1.90;99.90
25332;DHT22;13284;52.748;13.452;2024-01-30T02:08:32;1.90;99.90
25332;DHT22;13284;52.748;13.452;2024-01-30T02:10:58;1.90;99.90
25332;DHT22;13284;52.748;13.452;2024-01-30T02:13:23;1.90;99.90
25332;DHT22;13284;52.748;13.452;2024-01-30T02:15:50;2.00;99.90
25332;DHT22;13284;52.748;13.452;2024-01-30T02:18:16;1.90;99.90
25332;DHT22;13284;52.748;13.452;2024-01-30T02:20:42;1.90;99.90
25332;DHT22;13284;52.748;13.452;2024-01-30T02:23:09;1.90;99.90
25332;DHT22;13284;52.748;13.452;2024-01-30T02:25:43;1.90;99.90
25332;DHT22;13284;52.748;13.452;2024-01-30T02:28:14;1.90;99.90
25332;DHT22;13284;52.748;13.452;2024-01-30T02:30:42;2.00;99.90
25332;DHT22;13284;52.748;13.452;2024-01-30T02:33:08;2.00;99.90
25332;DHT22;13284;52.748;13.452;2024-01-30T02:35:33;2.00;99.90
25332;DHT22;13284;52.748;13.452;2024-01-30T02:37:59;1.90;99.90
25332;DHT22;13284;52.748;13.452;2024-01-30T02:40:25;2.00;99.90
25332;DHT22;13284;52.748;13.452;2024-01-30T02:42:50;1.90;99.90
25332;DHT22;13284;52.748;13.452;2024-01-30T02:45:16;1.90;99.90
25332;DHT22;13284;52.748;13.452;2024-01-30T02:47:42;1.90;99.90
25332;DHT22;13284;52.748;13.452;2024-01-30T02:50:08;1.90;99.90
25332;DHT22;13284;52.748;13.452;2024-01-30T02:52:33;1.90;99.90
25332;DHT22;13284;52.748;13.452;2024-01-30T02:54:59;1.80;99.90
25332;DHT22;13284;52.748;13.452;2024-01-30T02:57:25;1.90;99.90
25332;DHT22;13284;52.748;13.452;2024-01-30T02:59:51;1.90;99.90
25332;DHT22;13284;52.748;13.452;2024-01-30T03:02:16;1.80;99.90
25332;DHT22;13284;52.748;13.452;2024-01-30T03:04:42;1.80;99.90
25332;DHT22;13284;52.748;13.452;2024-01-30T03:07:08;1.80;99.90
25332;DHT22;13284;52.748;13.452;2024-01-30T03:09:34;1.80;99.90
25332;DHT22;13284;52.748;13.452;2024-01-30T03:12:00;1.80;99.90
25332;DHT22;13284;52.748;13.452;2024-01-30T03:14:26;1.80;99.90
25332;DHT22;13284;52.748;13.452;2024-01-30T03:16:51;1.80;99.90
25332;DHT22;13284;52.748;13.452;2024-01-30T03:19:17;1.80;99.90
25332;DHT22;13284;52.748;13.452;2024-01-30T03:21:44;1.80;99.90
25332;DHT22;13284;52.748;13.452;2024-01-30T03:24:09;1.70;99.90
25332;DHT22;13284;52.748;13.452;2024-01-30T03:26:35;1.80;99.90
25332;DHT22;13284;52.748;13.452;2024-01-30T03:29:00;1.80;99.90
25332;DHT22;13284;52.748;13.452;2024-01-30T03:31:26;1.80;99.90
25332;DHT22;13284;52.748;13.452;2024-01-30T03:33:52;1.80;99.90
25332;DHT22;13284;52.748;13.452;2024-01-30T03:36:17;1.90;99.90
25332;DHT22;13284;52.748;13.452;2024-01-30T03:38:43;1.80;99.90
25332;DHT22;13284;52.748;13.452;2024-01-30T03:41:09;1.80;99.90
25332;DHT22;13284;52.748;13.452;2024-01-30T03:43:35;1.80;99.90
25332;DHT22;13284;52.748;13.452;2024-01-30T03:46:01;1.70;99.90
25332;DHT22;13284;52.748;13.452;2024-01-30T03:48:28;1.60;99.90
25332;DHT22;13284;52.748;13.452;2024-01-30T03:50:53;1.60;99.90
25332;DHT22;13284;52.748;13.452;2024-01-30T03:53:19;1.60;99.90
25332;DHT22;13284;52.748;13.452;2024-01-30T03:55:44;1.60;99.90
25332;DHT22;13284;52.748;13.452;2024-01-30T03:58:10;1.60;99.90
25332;DHT22;13284;52.748;13.452;2024-01-30T04:00:36;1.60;99.90
25332;DHT22;13284;52.748;13.452;2024-01-30T04:03:01;1.50;99.90
25332;DHT22;13284;52.748;13.452;2024-01-30T04:05:27;1.50;99.90
25332;DHT22;13284;52.748;13.452;2024-01-30T04:07:52;1.40;99.90
25332;DHT22;13284;52.748;13.452;2024-01-30T04:10:18;1.40;99.90
25332;DHT22;13284;52.748;13.452;2024-01-30T04:12:43;1.40;99.90
25332;DHT22;13284;52.748;13.452;2024-01-30T04:15:09;1.40;99.90
25332;DHT22;13284;52.748;13.452;2024-01-30T04:17:34;1.30;99.90
25332;DHT22;13284;52.748;13.452;2024-01-30T04:20:00;1.30;99.90
25332;DHT22;13284;52.748;13.452;2024-01-30T04:22:26;1.40;99.90
25332;DHT22;13284;52.748;13.452;2024-01-30T04:24:51;1.40;99.90
25332;DHT22;13284;52.748;13.452;2024-01-30T04:27:17;1.40;99.90
25332;DHT22;13284;52.748;13.452;2024-01-30T04:29:43;1.30;99.90
25332;DHT22;13284;52.748;13.452;2024-01-30T04:32:09;1.30;99.90
25332;DHT22;13284;52.748;13.452;2024-01-30T04:34:36;1.30;99.90
25332;DHT22;13284;52.748;13.452;2024-01-30T04:37:02;1.30;99.90
25332;DHT22;13284;52.748;13.452;2024-01-30T04:39:28;1.40;99.90
25332;DHT22;13284;52.748;13.452;2024-01-30T04:41:53;1.40;99.90
25332;DHT22;13284;52.748;13.452;2024-01-30T04:44:19;1.30;99.90
25332;DHT22;13284;52.748;13.452;2024-01-30T04:46:44;1.30;99.90
25332;DHT22;13284;52.748;13.452;2024-01-30T04:49:10;1.40;99.90
25332;DHT22;13284;52.748;13.452;2024-01-30T04:51:36;1.40;99.90
25332;DHT22;13284;52.748;13.452;2024-01-30T04:54:02;1.40;99.90
25332;DHT22;13284;52.748;13.452;2024-01-30T04:56:27;1.40;99.90
25332;DHT22;13284;52.748;13.452;2024-01-30T04:58:53;1.40;99.90
25332;DHT22;13284;52.748;13.452;2024-01-30T05:01:19;1.50;99.90
25332;DHT22;13284;52.748;13.452;2024-01-30T05:03:45;1.40;99.90
25332;DHT22;13284;52.748;13.452;2024-01-30T05:06:11;1.50;99.90
25332;DHT22;13284;52.748;13.452;2024-01-30T05:08:37;1.40;99.90
25332;DHT22;13284;52.748;13.452;2024-01-30T05:11:04;1.50;99.90
25332;DHT22;13284;52.748;13.452;2024-01-30T05:13:31;1.50;99.90
25332;DHT22;13284;52.748;13.452;2024-01-30T05:15:57;1.50;99.90
25332;DHT22;13284;52.748;13.452;2024-01-30T05:18:23;1.50;99.90
25332;DHT22;13284;52.748;13.452;2024-01-30T05:20:50;1.60;99.90
25332;DHT22;13284;52.748;13.452;2024-01-30T05:23:16;1.50;99.90
25332;DHT22;13284;52.748;13.452;2024-01-30T05:25:42;1.50;99.90
25332;DHT22;13284;52.748;13.452;2024-01-30T05:28:08;1.50;99.90
25332;DHT22;13284;52.748;13.452;2024-01-30T05:30:34;1.50;99.90
25332;DHT22;13284;52.748;13.452;2024-01-30T05:33:00;1.60;99.90
25332;DHT22;13284;52.748;13.452;2024-01-30T05:35:26;1.60;99.90
25332;DHT22;13284;52.748;13.452;2024-01-30T05:37:51;1.50;99.90
25332;DHT22;13284;52.748;13.452;2024-01-30T05:40:17;1.50;99.90
25332;DHT22;13284;52.748;13.452;2024-01-30T05:42:43;1.50;99.90
25332;DHT22;13284;52.748;13.452;2024-01-30T05:45:09;1.50;99.90
25332;DHT22;13284;52.748;13.452;2024-01-30T05:47:35;1.60;99.90
25332;DHT22;13284;52.748;13.452;2024-01-30T05:50:01;1.60;99.90
25332;DHT22;13284;52.748;13.452;2024-01-30T05:52:27;1.60;99.90
25332;DHT22;13284;52.748;13.452;2024-01-30T05:54:53;1.60;99.90
25332;DHT22;13284;52.748;13.452;2024-01-30T05:57:18;1.60;99.90
25332;DHT22;13284;52.748;13.452;2024-01-30T05:59:45;1.60;99.90
25332;DHT22;13284;52.748;13.452;2024-01-30T06:02:11;1.60;99.90
25332;DHT22;13284;52.748;13.452;2024-01-30T06:04:37;1.50;99.90
25332;DHT22;13284;52.748;13.452;2024-01-30T06:07:02;1.50;99.90
25332;DHT22;13284;52.748;13.452;2024-01-30T06:09:30;1.50;99.90
25332;DHT22;13284;52.748;13.452;2024-01-30T06:11:55;1.50;99.90
25332;DHT22;13284;52.748;13.452;2024-01-30T06:14:21;1.50;99.90
25332;DHT22;13284;52.748;13.452;2024-01-30T06:16:47;1.50;99.90
25332;DHT22;13284;52.748;13.452;2024-01-30T06:19:12;1.50;99.90
25332;DHT22;13284;52.748;13.452;2024-01-30T06:21:37;1.50;99.90
25332;DHT22;13284;52.748;13.452;2024-01-30T06:24:04;1.50;99.90
25332;DHT22;13284;52.748;13.452;2024-01-30T06:26:30;1.50;99.90
25332;DHT22;13284;52.748;13.452;2024-01-30T06:28:55;1.60;99.90
25332;DHT22;13284;52.748;13.452;2024-01-30T06:31:21;1.60;99.90
25332;DHT22;13284;52.748;13.452;2024-01-30T06:33:50;1.60;99.90
25332;DHT22;13284;52.748;13.452;2024-01-30T06:36:16;1.60;99.90
25332;DHT22;13284;52.748;13.452;2024-01-30T06:38:41;1.60;99.90
25332;DHT22;13284;52.748;13.452;2024-01-30T06:41:07;1.60;99.90
25332;DHT22;13284;52.748;13.452;2024-01-30T06:43:33;1.60;99.90
25332;DHT22;13284;52.748;13.452;2024-01-30T06:45:58;1.70;99.90
25332;DHT22;13284;52.748;13.452;2024-01-30T06:48:25;1.70;99.90
25332;DHT22;13284;52.748;13.452;2024-01-30T06:50:53;1.70;99.90
25332;DHT22;13284;52.748;13.452;2024-01-30T06:53:19;1.70;99.90
25332;DHT22;13284;52.748;13.452;2024-01-30T06:55:44;1.70;99.90
25332;DHT22;13284;52.748;13.452;2024-01-30T06:58:10;1.70;99.90
25332;DHT22;13284;52.748;13.452;2024-01-30T07:00:35;1.80;99.90
25332;DHT22;13284;52.748;13.452;2024-01-30T07:03:01;1.80;99.90
25332;DHT22;13284;52.748;13.452;2024-01-30T07:05:27;1.80;99.90
25332;DHT22;13284;52.748;13.452;2024-01-30T07:07:52;1.80;99.90
25332;DHT22;13284;52.748;13.452;2024-01-30T07:10:18;1.80;99.90
25332;DHT22;13284;52.748;13.452;2024-01-30T07:12:43;1.80;99.90
25332;DHT22;13284;52.748;13.452;2024-01-30T07:15:09;1.80;99.90
25332;DHT22;13284;52.748;13.452;2024-01-30T07:17:35;1.90;99.90
25332;DHT22;13284;52.748;13.452;2024-01-30T07:20:01;1.90;99.90
25332;DHT22;13284;52.748;13.452;2024-01-30T07:22:30;2.00;99.90
25332;DHT22;13284;52.748;13.452;2024-01-30T07:24:56;2.00;99.90
25332;DHT22;13284;52.748;13.452;2024-01-30T07:27:22;2.00;99.90
25332;DHT22;13284;52.748;13.452;2024-01-30T07:29:47;2.00;99.90
25332;DHT22;13284;52.748;13.452;2024-01-30T07:32:13;2.00;99.90
25332;DHT22;13284;52.748;13.452;2024-01-30T07:34:38;2.00;99.90
25332;DHT22;13284;52.748;13.452;2024-01-30T07:37:04;2.20;99.90
25332;DHT22;13284;52.748;13.452;2024-01-30T07:39:29;2.20;99.90
25332;DHT22;13284;52.748;13.452;2024-01-30T07:41:55;2.20;99.90
25332;DHT22;13284;52.748;13.452;2024-01-30T07:44:20;2.30;99.90
25332;DHT22;13284;52.748;13.452;2024-01-30T07:46:46;2.30;99.90
25332;DHT22;13284;52.748;13.452;2024-01-30T07:49:12;2.40;99.90
25332;DHT22;13284;52.748;13.452;2024-01-30T07:51:39;2.40;99.90
25332;DHT22;13284;52.748;13.452;2024-01-30T07:54:05;2.50;99.90
25332;DHT22;13284;52.748;13.452;2024-01-30T07:56:30;2.50;99.90
25332;DHT22;13284;52.748;13.452;2024-01-30T07:58:56;2.60;99.90
25332;DHT22;13284;52.748;13.452;2024-01-30T08:01:21;2.60;99.90
25332;DHT22;13284;52.748;13.452;2024-01-30T08:03:47;2.70;99.90
25332;DHT22;13284;52.748;13.452;2024-01-30T08:06:12;2.70;99.90
25332;DHT22;13284;52.748;13.452;2024-01-30T08:08:38;2.80;99.90
25332;DHT22;13284;52.748;13.452;2024-01-30T08:11:03;2.80;99.90
25332;DHT22;13284;52.748;13.452;2024-01-30T08:13:29;2.80;99.90
25332;DHT22;13284;52.748;13.452;2024-01-30T08:15:55;2.80;99.90
25332;DHT22;13284;52.748;13.452;2024-01-30T08:18:20;2.90;99.90
25332;DHT22;13284;52.748;13.452;2024-01-30T08:20:46;2.90;99.90
25332;DHT22;13284;52.748;13.452;2024-01-30T08:23:11;2.90;99.90
25332;DHT22;13284;52.748;13.452;2024-01-30T08:25:37;3.00;99.90
25332;DHT22;13284;52.748;13.452;2024-01-30T08:28:02;3.10;99.90
25332;DHT22;13284;52.748;13.452;2024-01-30T08:30:28;3.10;99.90
25332;DHT22;13284;52.748;13.452;2024-01-30T08:32:53;3.10;99.90
25332;DHT22;13284;52.748;13.452;2024-01-30T08:35:19;3.20;99.90
25332;DHT22;13284;52.748;13.452;2024-01-30T08:37:44;3.20;99.90
25332;DHT22;13284;52.748;13.452;2024-01-30T08:40:10;3.30;99.90
25332;DHT22;13284;52.748;13.452;2024-01-30T08:42:36;3.30;99.90
25332;DHT22;13284;52.748;13.452;2024-01-30T08:45:01;3.40;99.90
25332;DHT22;13284;52.748;13.452;2024-01-30T08:47:27;3.40;99.90
25332;DHT22;13284;52.748;13.452;2024-01-30T08:49:53;3.50;99.90
25332;DHT22;13284;52.748;13.452;2024-01-30T08:52:18;3.60;99.90
25332;DHT22;13284;52.748;13.452;2024-01-30T08:54:44;3.70;99.90
25332;DHT22;13284;52.748;13.452;2024-01-30T08:57:09;3.70;99.90
25332;DHT22;13284;52.748;13.452;2024-01-30T08:59:35;3.70;99.90
25332;DHT22;13284;52.748;13.452;2024-01-30T09:02:00;3.80;99.90
25332;DHT22;13284;52.748;13.452;2024-01-30T09:04:26;3.80;99.90
25332;DHT22;13284;52.748;13.452;2024-01-30T09:06:51;3.90;99.90
25332;DHT22;13284;52.748;13.452;2024-01-30T09:09:17;3.90;99.90
25332;DHT22;13284;52.748;13.452;2024-01-30T09:11:43;4.00;99.90
25332;DHT22;13284;52.748;13.452;2024-01-30T09:14:09;4.00;99.90
25332;DHT22;13284;52.748;13.452;2024-01-30T09:16:34;4.10;99.90
25332;DHT22;13284;52.748;13.452;2024-01-30T09:19:00;4.10;99.90
25332;DHT22;13284;52.748;13.452;2024-01-30T09:21:26;4.20;99.90
25332;DHT22;13284;52.748;13.452;2024-01-30T09:23:54;4.20;99.90
25332;DHT22;13284;52.748;13.452;2024-01-30T09:26:20;4.30;99.90
25332;DHT22;13284;52.748;13.452;2024-01-30T09:28:45;4.30;99.90
25332;DHT22;13284;52.748;13.452;2024-01-30T09:31:11;4.40;99.90
25332;DHT22;13284;52.748;13.452;2024-01-30T09:33:38;4.50;99.90
25332;DHT22;13284;52.748;13.452;2024-01-30T09:36:04;4.50;99.90
25332;DHT22;13284;52.748;13.452;2024-01-30T09:38:30;4.60;99.90
25332;DHT22;13284;52.748;13.452;2024-01-30T09:40:56;4.60;99.90
25332;DHT22;13284;52.748;13.452;2024-01-30T09:43:23;4.70;99.90
25332;DHT22;13284;52.748;13.452;2024-01-30T09:45:50;4.70;99.90
25332;DHT22;13284;52.748;13.452;2024-01-30T09:48:16;4.80;99.90
25332;DHT22;13284;52.748;13.452;2024-01-30T09:50:41;4.90;99.90
25332;DHT22;13284;52.748;13.452;2024-01-30T09:53:11;4.90;99.90
25332;DHT22;13284;52.748;13.452;2024-01-30T09:55:39;5.00;99.90
25332;DHT22;13284;52.748;13.452;2024-01-30T09:58:08;5.10;99.90
25332;DHT22;13284;52.748;13.452;2024-01-30T10:00:33;5.20;99.90
25332;DHT22;13284;52.748;13.452;2024-01-30T10:02:59;5.40;99.90
25332;DHT22;13284;52.748;13.452;2024-01-30T10:05:27;5.50;99.90
25332;DHT22;13284;52.748;13.452;2024-01-30T10:07:56;5.60;99.90
25332;DHT22;13284;52.748;13.452;2024-01-30T10:10:23;5.70;99.90
25332;DHT22;13284;52.748;13.452;2024-01-30T10:12:51;5.70;99.90
25332;DHT22;13284;52.748;13.452;2024-01-30T10:15:18;5.90;99.90
25332;DHT22;13284;52.748;13.452;2024-01-30T10:17:47;5.90;99.90
25332;DHT22;13284;52.748;13.452;2024-01-30T10:20:13;5.90;99.90
25332;DHT22;13284;52.748;13.452;2024-01-30T10:22:40;6.00;99.90
25332;DHT22;13284;52.748;13.452;2024-01-30T10:25:07;6.10;99.90
25332;DHT22;13284;52.748;13.452;2024-01-30T10:27:34;6.20;99.90
25332;DHT22;13284;52.748;13.452;2024-01-30T10:30:00;6.20;99.90
25332;DHT22;13284;52.748;13.452;2024-01-30T10:32:25;6.20;99.90
25332;DHT22;13284;52.748;13.452;2024-01-30T10:34:51;6.30;99.90
25332;DHT22;13284;52.748;13.452;2024-01-30T10:37:17;6.30;99.90
25332;DHT22;13284;52.748;13.452;2024-01-30T10:39:45;6.40;99.90
25332;DHT22;13284;52.748;13.452;2024-01-30T10:42:12;6.40;99.90
25332;DHT22;13284;52.748;13.452;2024-01-30T10:44:57;6.60;99.90
25332;DHT22;13284;52.748;13.452;2024-01-30T10:47:28;6.70;99.90
25332;DHT22;13284;52.748;13.452;2024-01-30T10:49:55;6.80;99.90
25332;DHT22;13284;52.748;13.452;2024-01-30T10:52:23;6.90;99.90
25332;DHT22;13284;52.748;13.452;2024-01-30T10:54:51;7.00;99.90
25332;DHT22;13284;52.748;13.452;2024-01-30T10:57:18;7.20;99.90
25332;DHT22;13284;52.748;13.452;2024-01-30T10:59:44;7.30;99.90
25332;DHT22;13284;52.748;13.452;2024-01-30T11:02:10;7.40;99.90
25332;DHT22;13284;52.748;13.452;2024-01-30T11:04:41;7.50;99.90
25332;DHT22;13284;52.748;13.452;2024-01-30T11:07:24;7.70;99.90
25332;DHT22;13284;52.748;13.452;2024-01-30T11:09:51;7.70;99.90
25332;DHT22;13284;52.748;13.452;2024-01-30T11:12:16;7.70;99.90
25332;DHT22;13284;52.748;13.452;2024-01-30T11:14:46;7.80;99.90
25332;DHT22;13284;52.748;13.452;2024-01-30T11:17:12;7.90;99.90
25332;DHT22;13284;52.748;13.452;2024-01-30T11:19:37;8.00;99.90
25332;DHT22;13284;52.748;13.452;2024-01-30T11:22:03;8.20;99.90
25332;DHT22;13284;52.748;13.452;2024-01-30T11:24:40;8.30;99.90
25332;DHT22;13284;52.748;13.452;2024-01-30T11:27:09;8.50;99.90
25332;DHT22;13284;52.748;13.452;2024-01-30T11:29:35;8.80;99.90
25332;DHT22;13284;52.748;13.452;2024-01-30T11:32:02;8.90;99.90
25332;DHT22;13284;52.748;13.452;2024-01-30T11:34:27;9.00;99.90
25332;DHT22;13284;52.748;13.452;2024-01-30T11:36:57;9.10;99.90
25332;DHT22;13284;52.748;13.452;2024-01-30T11:39:28;9.10;99.90
25332;DHT22;13284;52.748;13.452;2024-01-30T11:41:54;9.10;99.90
25332;DHT22;13284;52.748;13.452;2024-01-30T11:44:20;9.10;99.90
25332;DHT22;13284;52.748;13.452;2024-01-30T11:46:50;8.90;99.90
25332;DHT22;13284;52.748;13.452;2024-01-30T11:49:16;8.90;99.90
25332;DHT22;13284;52.748;13.452;2024-01-30T11:51:43;8.80;99.90
25332;DHT22;13284;52.748;13.452;2024-01-30T11:54:08;8.70;99.90
25332;DHT22;13284;52.748;13.452;2024-01-30T11:56:34;8.70;99.90
25332;DHT22;13284;52.748;13.452;2024-01-30T11:59:00;8.60;99.90
25332;DHT22;13284;52.748;13.452;2024-01-30T12:01:26;8.60;99.90
25332;DHT22;13284;52.748;13.452;2024-01-30T12:03:52;8.70;99.90
25332;DHT22;13284;52.748;13.452;2024-01-30T12:06:18;8.70;99.90
25332;DHT22;13284;52.748;13.452;2024-01-30T12:08:58;8.70;99.90
25332;DHT22;13284;52.748;13.452;2024-01-30T12:11:24;8.70;99.90
25332;DHT22;13284;52.748;13.452;2024-01-30T12:13:51;8.80;99.90
25332;DHT22;13284;52.748;13.452;2024-01-30T12:16:18;8.80;99.90
25332;DHT22;13284;52.748;13.452;2024-01-30T12:18:43;8.80;99.90
25332;DHT22;13284;52.748;13.452;2024-01-30T12:21:09;8.80;99.90
25332;DHT22;13284;52.748;13.452;2024-01-30T12:23:35;8.90;99.90
25332;DHT22;13284;52.748;13.452;2024-01-30T12:26:01;9.00;99.90
25332;DHT22;13284;52.748;13.452;2024-01-30T12:28:29;9.10;99.90
25332;DHT22;13284;52.748;13.452;2024-01-30T12:31:01;9.10;99.90
25332;DHT22;13284;52.748;13.452;2024-01-30T12:33:29;9.20;99.90
25332;DHT22;13284;52.748;13.452;2024-01-30T12:35:54;9.30;99.90
25332;DHT22;13284;52.748;13.452;2024-01-30T12:38:20;9.30;99.90
25332;DHT22;13284;52.748;13.452;2024-01-30T12:40:46;9.30;99.90
25332;DHT22;13284;52.748;13.452;2024-01-30T12:43:13;9.30;99.90
25332;DHT22;13284;52.748;13.452;2024-01-30T12:45:39;9.40;99.90
25332;DHT22;13284;52.748;13.452;2024-01-30T12:48:05;9.30;99.90
25332;DHT22;13284;52.748;13.452;2024-01-30T12:50:30;9.30;99.90
25332;DHT22;13284;52.748;13.452;2024-01-30T12:52:56;9.30;99.90
25332;DHT22;13284;52.748;13.452;2024-01-30T12:55:23;9.30;99.90
25332;DHT22;13284;52.748;13.452;2024-01-30T12:57:50;9.40;99.90
25332;DHT22;13284;52.748;13.452;2024-01-30T13:00:16;9.40;99.90
25332;DHT22;13284;52.748;13.452;2024-01-30T13:02:42;9.40;99.90
25332;DHT22;13284;52.748;13.452;2024-01-30T13:05:10;9.40;99.90
25332;DHT22;13284;52.748;13.452;2024-01-30T13:07:36;9.40;99.90
25332;DHT22;13284;52.748;13.452;2024-01-30T13:10:02;9.40;99.90
25332;DHT22;13284;52.748;13.452;2024-01-30T13:12:29;9.40;99.90
25332;DHT22;13284;52.748;13.452;2024-01-30T13:14:54;9.50;99.90
25332;DHT22;13284;52.748;13.452;2024-01-30T13:17:20;9.60;99.90
25332;DHT22;13284;52.748;13.452;2024-01-30T13:19:46;9.30;99.90
25332;DHT22;13284;52.748;13.452;2024-01-30T13:22:11;9.20;99.90
25332;DHT22;13284;52.748;13.452;2024-01-30T13:24:37;9.10;99.90
25332;DHT22;13284;52.748;13.452;2024-01-30T13:27:03;9.00;99.90
25332;DHT22;13284;52.748;13.452;2024-01-30T13:29:31;9.10;99.90
25332;DHT22;13284;52.748;13.452;2024-01-30T13:31:56;8.90;99.90
25332;DHT22;13284;52.748;13.452;2024-01-30T13:34:22;8.90;99.90
25332;DHT22;13284;52.748;13.452;2024-01-30T13:36:47;8.80;99.90
25332;DHT22;13284;52.748;13.452;2024-01-30T13:39:14;8.80;99.90
25332;DHT22;13284;52.748;13.452;2024-01-30T13:41:41;8.80;99.90
25332;DHT22;13284;52.748;13.452;2024-01-30T13:44:07;8.70;99.90
25332;DHT22;13284;52.748;13.452;2024-01-30T13:46:34;8.60;99.90
25332;DHT22;13284;52.748;13.452;2024-01-30T13:48:59;8.60;99.90
25332;DHT22;13284;52.748;13.452;2024-01-30T13:51:25;8.60;99.90
25332;DHT22;13284;52.748;13.452;2024-01-30T13:53:51;8.50;99.90
25332;DHT22;13284;52.748;13.452;2024-01-30T13:56:16;8.50;99.90
25332;DHT22;13284;52.748;13.452;2024-01-30T13:58:42;8.40;99.90
25332;DHT22;13284;52.748;13.452;2024-01-30T14:01:07;8.50;99.90
25332;DHT22;13284;52.748;13.452;2024-01-30T14:03:35;8.50;99.90
25332;DHT22;13284;52.748;13.452;2024-01-30T14:06:00;8.50;99.90
25332;DHT22;13284;52.748;13.452;2024-01-30T14:08:26;8.40;99.90
25332;DHT22;13284;52.748;13.452;2024-01-30T14:10:54;8.50;99.90
25332;DHT22;13284;52.748;13.452;2024-01-30T14:13:20;8.50;99.90
25332;DHT22;13284;52.748;13.452;2024-01-30T14:15:46;8.40;99.90
25332;DHT22;13284;52.748;13.452;2024-01-30T14:18:11;8.40;99.90
25332;DHT22;13284;52.748;13.452;2024-01-30T14:20:37;8.40;99.90
25332;DHT22;13284;52.748;13.452;2024-01-30T14:23:02;8.40;99.90
25332;DHT22;13284;52.748;13.452;2024-01-30T14:25:28;8.30;99.90
25332;DHT22;13284;52.748;13.452;2024-01-30T14:27:53;8.30;99.90
25332;DHT22;13284;52.748;13.452;2024-01-30T14:30:19;8.30;99.90
25332;DHT22;13284;52.748;13.452;2024-01-30T14:32:45;8.30;99.90
25332;DHT22;13284;52.748;13.452;2024-01-30T14:35:10;8.20;99.90
25332;DHT22;13284;52.748;13.452;2024-01-30T14:37:37;8.20;99.90
25332;DHT22;13284;52.748;13.452;2024-01-30T14:40:03;8.10;99.90
25332;DHT22;13284;52.748;13.452;2024-01-30T14:42:29;8.10;99.90
25332;DHT22;13284;52.748;13.452;2024-01-30T14:44:57;8.00;99.90
25332;DHT22;13284;52.748;13.452;2024-01-30T14:47:22;8.10;99.90
25332;DHT22;13284;52.748;13.452;2024-01-30T14:49:48;8.00;99.90
25332;DHT22;13284;52.748;13.452;2024-01-30T14:52:14;8.00;99.90
25332;DHT22;13284;52.748;13.452;2024-01-30T14:54:40;8.00;99.90
25332;DHT22;13284;52.748;13.452;2024-01-30T14:57:05;8.00;99.90
25332;DHT22;13284;52.748;13.452;2024-01-30T14:59:31;7.90;99.90
25332;DHT22;13284;52.748;13.452;2024-01-30T15:01:57;7.90;99.90
25332;DHT22;13284;52.748;13.452;2024-01-30T15:04:22;7.80;99.90
25332;DHT22;13284;52.748;13.452;2024-01-30T15:06:48;7.80;99.90
25332;DHT22;13284;52.748;13.452;2024-01-30T15:09:15;7.70;99.90
25332;DHT22;13284;52.748;13.452;2024-01-30T15:11:43;7.70;99.90
25332;DHT22;13284;52.748;13.452;2024-01-30T15:14:09;7.70;99.90
25332;DHT22;13284;52.748;13.452;2024-01-30T15:16:35;7.60;99.90
25332;DHT22;13284;52.748;13.452;2024-01-30T15:19:00;7.50;99.90
25332;DHT22;13284;52.748;13.452;2024-01-30T15:21:26;7.50;99.90
25332;DHT22;13284;52.748;13.452;2024-01-30T15:23:52;7.50;99.90